createdAt,value
2017-09-10T00:01:09.254Z,0
2017-09-10T00:02:19.336Z,0
2017-09-10T00:03:29.357Z,0
2017-09-10T00:04:42.260Z,0
2017-09-10T00:05:52.618Z,0
2017-09-10T00:07:26.843Z,0
2017-09-10T00:08:37.181Z,0
2017-09-10T00:09:47.533Z,0
2017-09-10T00:10:57.896Z,0
2017-09-10T00:12:08.239Z,0
2017-09-10T00:13:18.628Z,0
2017-09-10T00:14:28.971Z,0
2017-09-10T00:15:39.340Z,0
2017-09-10T00:16:49.684Z,0
2017-09-10T00:17:59.699Z,0
2017-09-10T00:19:09.781Z,0
2017-09-10T00:20:20.109Z,0
2017-09-10T00:21:30.510Z,0
2017-09-10T00:22:41.849Z,0
2017-09-10T00:23:51.558Z,0
2017-09-10T00:25:01.637Z,0
2017-09-10T00:26:11.663Z,0
2017-09-10T00:27:22.004Z,0
2017-09-10T00:28:32.353Z,0
2017-09-10T00:29:42.377Z,0
2017-09-10T00:30:52.728Z,0
2017-09-10T00:32:03.072Z,0
2017-09-10T00:33:13.419Z,0
2017-09-10T00:34:23.756Z,0
2017-09-10T00:35:33.778Z,0
2017-09-10T00:36:44.165Z,0
2017-09-10T00:37:54.507Z,0
2017-09-10T00:39:04.529Z,0
2017-09-10T00:40:14.558Z,0
2017-09-10T00:41:24.594Z,0
2017-09-10T00:42:34.989Z,0
2017-09-10T00:43:45.340Z,0
2017-09-10T00:44:55.686Z,0
2017-09-10T00:46:05.708Z,0
2017-09-10T00:47:15.717Z,0
2017-09-10T00:48:27.317Z,0
2017-09-10T00:49:37.667Z,0
2017-09-10T00:50:48.010Z,0
2017-09-10T00:51:59.041Z,0
2017-09-10T00:53:09.384Z,0
2017-09-10T00:54:19.421Z,0
2017-09-10T00:55:29.129Z,0
2017-09-10T00:56:38.833Z,0
2017-09-10T00:57:48.857Z,0
2017-09-10T00:58:59.201Z,0
2017-09-10T01:00:09.538Z,0
2017-09-10T01:01:19.555Z,0
2017-09-10T01:02:29.892Z,0
2017-09-10T01:03:40.234Z,0
2017-09-10T01:04:50.251Z,0
2017-09-10T01:06:00.594Z,0
2017-09-10T01:07:10.290Z,0
2017-09-10T01:08:20.312Z,0
2017-09-10T01:09:30.645Z,0
2017-09-10T01:10:40.980Z,0
2017-09-10T01:11:51.094Z,0
2017-09-10T01:13:01.416Z,0
2017-09-10T01:14:11.116Z,0
2017-09-10T01:15:21.466Z,0
2017-09-10T01:16:31.498Z,0
2017-09-10T01:17:48.031Z,0
2017-09-10T01:18:58.366Z,0
2017-09-10T01:20:10.276Z,0
2017-09-10T01:21:20.617Z,0
2017-09-10T01:22:30.993Z,0
2017-09-10T01:23:43.332Z,0
2017-09-10T01:24:53.574Z,0
2017-09-10T01:26:03.899Z,0
2017-09-10T01:27:14.240Z,0
2017-09-10T01:28:24.272Z,0
2017-09-10T01:29:34.673Z,0
2017-09-10T01:30:44.691Z,0
2017-09-10T01:31:55.028Z,0
2017-09-10T01:33:05.361Z,0
2017-09-10T01:34:15.685Z,0
2017-09-10T01:35:26.024Z,0
2017-09-10T01:36:36.050Z,0
2017-09-10T01:37:46.096Z,0
2017-09-10T01:38:56.428Z,0
2017-09-10T01:40:06.764Z,0
2017-09-10T01:41:19.580Z,0
2017-09-10T01:42:29.938Z,0
2017-09-10T01:43:40.905Z,0
2017-09-10T01:44:51.237Z,0
2017-09-10T01:46:01.268Z,0
2017-09-10T01:47:11.284Z,0
2017-09-10T01:48:21.627Z,0
2017-09-10T01:49:33.428Z,0
2017-09-10T01:50:44.171Z,0
2017-09-10T01:51:55.452Z,0
2017-09-10T01:53:05.484Z,0
2017-09-10T01:54:15.857Z,0
2017-09-10T01:55:26.213Z,0
2017-09-10T01:56:36.551Z,0
2017-09-10T01:57:46.581Z,0
2017-09-10T01:58:56.612Z,0
2017-09-10T02:00:06.625Z,0
2017-09-10T02:01:16.640Z,0
2017-09-10T02:02:26.970Z,0
2017-09-10T02:03:37.312Z,0
2017-09-10T02:04:47.714Z,0
2017-09-10T02:05:58.988Z,0
2017-09-10T02:07:09.325Z,0
2017-09-10T02:08:21.312Z,0
2017-09-10T02:09:31.656Z,0
2017-09-10T02:10:42.057Z,0
2017-09-10T02:11:52.411Z,0
2017-09-10T02:13:02.756Z,0
2017-09-10T02:14:12.812Z,0
2017-09-10T02:15:23.139Z,0
2017-09-10T02:16:33.213Z,0
2017-09-10T02:17:43.551Z,0
2017-09-10T02:18:53.888Z,0
2017-09-10T02:20:03.920Z,0
2017-09-10T02:21:14.263Z,0
2017-09-10T02:22:24.286Z,0
2017-09-10T02:23:34.626Z,0
2017-09-10T02:24:44.962Z,0
2017-09-10T02:25:55.294Z,0
2017-09-10T02:27:05.631Z,0
2017-09-10T02:28:15.962Z,0
2017-09-10T02:29:25.659Z,0
2017-09-10T02:30:36.012Z,0
2017-09-10T02:31:46.956Z,0
2017-09-10T02:32:57.289Z,0
2017-09-10T02:34:07.656Z,0
2017-09-10T02:35:17.997Z,0
2017-09-10T02:36:28.336Z,0
2017-09-10T02:37:38.677Z,0
2017-09-10T02:38:48.712Z,0
2017-09-10T02:39:59.090Z,0
2017-09-10T02:41:09.443Z,0
2017-09-10T02:42:19.784Z,0
2017-09-10T02:43:29.801Z,0
2017-09-10T02:44:42.103Z,0
2017-09-10T02:45:52.446Z,0
2017-09-10T02:47:02.478Z,0
2017-09-10T02:48:12.817Z,0
2017-09-10T02:49:22.845Z,0
2017-09-10T02:50:32.882Z,0
2017-09-10T02:51:43.279Z,0
2017-09-10T02:52:53.613Z,0
2017-09-10T02:54:03.636Z,0
2017-09-10T02:55:13.968Z,0
2017-09-10T02:56:23.996Z,0
2017-09-10T02:57:34.346Z,0
2017-09-10T02:58:44.368Z,0
2017-09-10T02:59:54.389Z,0
2017-09-10T03:01:04.079Z,0
2017-09-10T03:02:14.428Z,0
2017-09-10T03:33:49.685Z,0
2017-09-10T03:34:59.698Z,0
2017-09-10T03:36:09.720Z,0
2017-09-10T03:37:19.738Z,0
2017-09-10T03:38:30.087Z,0
2017-09-10T03:39:40.487Z,0
2017-09-10T03:40:50.823Z,0
2017-09-10T03:42:00.850Z,0
2017-09-10T03:43:11.180Z,0
2017-09-10T03:44:21.201Z,0
2017-09-10T03:45:31.269Z,0
2017-09-10T03:46:43.492Z,0
2017-09-10T03:47:53.827Z,0
2017-09-10T03:49:04.204Z,0
2017-09-10T03:50:14.545Z,0
2017-09-10T03:51:24.888Z,0
2017-09-10T03:52:35.229Z,0
2017-09-10T03:53:45.566Z,0
2017-09-10T03:54:55.910Z,0
2017-09-10T03:56:06.239Z,0
2017-09-10T03:57:16.341Z,0
2017-09-10T03:58:26.366Z,0
2017-09-10T03:59:36.918Z,0
2017-09-10T04:00:46.937Z,0
2017-09-10T04:01:56.639Z,0
2017-09-10T04:03:07.094Z,0
2017-09-10T04:04:17.441Z,0
2017-09-10T04:05:27.774Z,0
2017-09-10T04:06:38.106Z,0
2017-09-10T04:07:47.488Z,0
2017-09-10T04:08:57.837Z,0
2017-09-10T04:10:08.180Z,0
2017-09-10T04:11:18.206Z,0
2017-09-10T04:12:28.531Z,0
2017-09-10T04:13:38.867Z,0
2017-09-10T04:14:49.215Z,0
2017-09-10T04:16:01.787Z,0
2017-09-10T04:17:12.126Z,0
2017-09-10T04:18:22.152Z,0
2017-09-10T04:19:32.487Z,0
2017-09-10T04:20:42.511Z,5
2017-09-10T04:21:52.570Z,5
2017-09-10T04:23:02.925Z,5
2017-09-10T04:24:13.308Z,5
2017-09-10T04:25:25.839Z,5
2017-09-10T04:26:38.132Z,5
2017-09-10T04:27:48.458Z,5
2017-09-10T04:28:58.810Z,5
2017-09-10T04:30:08.842Z,5
2017-09-10T04:31:19.463Z,10
2017-09-10T04:32:29.805Z,10
2017-09-10T04:33:40.618Z,10
2017-09-10T04:34:50.690Z,10
2017-09-10T04:36:00.703Z,10
2017-09-10T04:37:10.406Z,10
2017-09-10T04:38:20.747Z,10
2017-09-10T04:39:30.770Z,15
2017-09-10T04:40:41.132Z,15
2017-09-10T04:41:51.459Z,15
2017-09-10T04:43:01.802Z,15
2017-09-10T04:44:11.822Z,20
2017-09-10T04:45:22.164Z,20
2017-09-10T04:46:32.493Z,25
2017-09-10T04:47:42.832Z,25
2017-09-10T04:48:52.860Z,30
2017-09-10T04:50:03.198Z,35
2017-09-10T04:51:13.549Z,40
2017-09-10T04:52:23.884Z,40
2017-09-10T04:53:33.911Z,40
2017-09-10T04:54:43.920Z,40
2017-09-10T04:55:54.301Z,35
2017-09-10T04:57:04.323Z,25
2017-09-10T04:58:14.667Z,25
2017-09-10T04:59:24.690Z,30
2017-09-10T05:00:35.048Z,30
2017-09-10T05:01:44.769Z,35
2017-09-10T05:02:55.105Z,40
2017-09-10T05:04:05.443Z,45
2017-09-10T05:05:15.815Z,45
2017-09-10T05:06:26.163Z,50
2017-09-10T05:07:36.511Z,55
2017-09-10T05:08:47.409Z,55
2017-09-10T05:09:57.745Z,55
2017-09-10T05:11:07.783Z,60
2017-09-10T05:12:18.115Z,60
2017-09-10T05:13:27.834Z,60
2017-09-10T05:14:37.853Z,60
2017-09-10T05:15:48.189Z,60
2017-09-10T05:16:58.512Z,55
2017-09-10T05:18:08.859Z,50
2017-09-10T05:19:19.251Z,50
2017-09-10T05:20:29.587Z,45
2017-09-10T05:21:39.620Z,45
2017-09-10T05:22:49.960Z,40
2017-09-10T05:23:59.987Z,40
2017-09-10T05:25:10.380Z,40
2017-09-10T05:26:20.753Z,40
2017-09-10T05:27:31.311Z,40
2017-09-10T05:28:41.331Z,45
2017-09-10T05:29:52.377Z,45
2017-09-10T05:31:02.436Z,45
2017-09-10T05:32:12.785Z,50
2017-09-10T05:33:23.127Z,50
2017-09-10T05:34:34.324Z,50
2017-09-10T05:35:46.184Z,50
2017-09-10T05:36:56.564Z,55
2017-09-10T05:38:06.603Z,55
2017-09-10T05:39:16.940Z,55
2017-09-10T05:40:27.316Z,55
2017-09-10T05:41:37.653Z,50
2017-09-10T05:42:47.680Z,55
2017-09-10T05:43:57.698Z,55
2017-09-10T05:45:08.141Z,55
2017-09-10T05:46:18.227Z,60
2017-09-10T05:47:28.269Z,60
2017-09-10T05:48:38.596Z,65
2017-09-10T05:49:48.936Z,65
2017-09-10T05:50:58.959Z,65
2017-09-10T05:52:09.320Z,70
2017-09-10T05:53:19.359Z,75
2017-09-10T05:54:29.433Z,75
2017-09-10T05:55:39.781Z,80
2017-09-10T05:56:50.127Z,75
2017-09-10T05:58:00.470Z,70
2017-09-10T05:59:10.500Z,70
2017-09-10T06:00:20.527Z,75
2017-09-10T06:01:30.876Z,75
2017-09-10T06:02:41.220Z,75
2017-09-10T06:03:51.623Z,75
2017-09-10T06:05:01.960Z,75
2017-09-10T06:06:12.302Z,75
2017-09-10T06:07:22.648Z,75
2017-09-10T06:08:33.009Z,75
2017-09-10T06:09:43.354Z,80
2017-09-10T06:10:53.704Z,80
2017-09-10T06:12:04.055Z,85
2017-09-10T06:13:14.407Z,85
2017-09-10T06:14:24.771Z,85
2017-09-10T06:15:35.121Z,85
2017-09-10T06:16:45.146Z,85
2017-09-10T06:17:55.495Z,105
2017-09-10T06:19:05.841Z,90
2017-09-10T06:20:15.559Z,95
2017-09-10T06:21:25.895Z,105
2017-09-10T06:22:36.466Z,110
2017-09-10T06:23:46.488Z,115
2017-09-10T06:24:56.521Z,120
2017-09-10T06:26:06.857Z,130
2017-09-10T06:27:17.208Z,135
2017-09-10T06:28:27.559Z,140
2017-09-10T06:29:39.001Z,145
2017-09-10T06:30:49.350Z,150
2017-09-10T06:31:59.730Z,150
2017-09-10T06:33:09.437Z,155
2017-09-10T06:34:19.466Z,155
2017-09-10T06:35:29.810Z,160
2017-09-10T06:36:40.157Z,160
2017-09-10T06:37:50.495Z,160
2017-09-10T06:39:00.830Z,160
2017-09-10T06:40:11.150Z,155
2017-09-10T06:41:21.182Z,150
2017-09-10T06:42:31.545Z,145
2017-09-10T06:43:41.889Z,145
2017-09-10T06:44:52.240Z,140
2017-09-10T06:46:02.266Z,135
2017-09-10T06:47:12.285Z,130
2017-09-10T06:48:22.302Z,125
2017-09-10T06:49:32.336Z,130
2017-09-10T06:50:42.046Z,125
2017-09-10T06:51:52.731Z,125
2017-09-10T06:53:03.087Z,135
2017-09-10T06:54:13.431Z,125
2017-09-10T06:55:25.530Z,135
2017-09-10T06:56:35.878Z,135
2017-09-10T06:57:46.234Z,155
2017-09-10T06:58:56.261Z,160
2017-09-10T07:00:06.610Z,150
2017-09-10T07:01:16.957Z,140
2017-09-10T07:02:27.319Z,120
2017-09-10T07:03:37.659Z,120
2017-09-10T07:04:47.384Z,115
2017-09-10T07:05:57.722Z,120
2017-09-10T07:07:07.757Z,125
2017-09-10T07:08:18.157Z,130
2017-09-10T07:09:28.726Z,145
2017-09-10T07:10:38.761Z,160
2017-09-10T07:11:48.781Z,175
2017-09-10T07:12:58.492Z,195
2017-09-10T07:14:08.194Z,185
2017-09-10T07:15:18.544Z,185
2017-09-10T07:16:28.558Z,185
2017-09-10T07:17:38.580Z,205
2017-09-10T07:18:48.946Z,210
2017-09-10T07:19:59.337Z,240
2017-09-10T07:21:09.680Z,235
2017-09-10T07:22:20.033Z,240
2017-09-10T07:23:30.374Z,240
2017-09-10T07:24:40.717Z,235
2017-09-10T07:25:50.429Z,235
2017-09-10T07:27:00.774Z,230
2017-09-10T07:28:11.099Z,210
2017-09-10T07:29:21.123Z,190
2017-09-10T07:30:31.506Z,180
2017-09-10T07:31:41.860Z,180
2017-09-10T07:32:51.893Z,175
2017-09-10T07:34:01.923Z,175
2017-09-10T07:35:12.270Z,165
2017-09-10T07:36:22.603Z,155
2017-09-10T07:37:32.645Z,155
2017-09-10T07:38:42.673Z,145
2017-09-10T07:39:52.694Z,155
2017-09-10T07:41:02.730Z,160
2017-09-10T07:42:13.072Z,165
2017-09-10T07:43:23.424Z,170
2017-09-10T07:44:33.769Z,170
2017-09-10T07:45:44.120Z,190
2017-09-10T07:46:54.481Z,200
2017-09-10T07:48:04.507Z,205
2017-09-10T07:49:14.537Z,210
2017-09-10T07:50:24.876Z,210
2017-09-10T07:51:35.240Z,220
2017-09-10T07:52:45.572Z,230
2017-09-10T07:53:55.915Z,230
2017-09-10T07:55:06.250Z,240
2017-09-10T07:56:16.615Z,240
2017-09-10T07:57:26.959Z,235
2017-09-10T07:58:37.301Z,240
2017-09-10T07:59:47.008Z,225
2017-09-10T08:00:57.035Z,220
2017-09-10T08:02:07.402Z,245
2017-09-10T08:03:17.728Z,260
2017-09-10T08:04:28.081Z,265
2017-09-10T08:05:38.429Z,245
2017-09-10T08:06:48.788Z,230
2017-09-10T08:07:58.822Z,230
2017-09-10T08:09:09.168Z,225
2017-09-10T08:10:19.711Z,220
2017-09-10T08:11:30.108Z,230
2017-09-10T08:12:40.143Z,225
2017-09-10T08:13:50.481Z,225
2017-09-10T08:15:00.831Z,225
2017-09-10T08:16:11.179Z,225
2017-09-10T08:17:21.568Z,230
2017-09-10T08:18:31.611Z,235
2017-09-10T08:19:41.947Z,245
2017-09-10T08:20:51.965Z,250
2017-09-10T08:22:01.996Z,255
2017-09-10T08:23:12.371Z,260
2017-09-10T08:24:22.732Z,255
2017-09-10T08:25:32.773Z,250
2017-09-10T08:26:43.126Z,255
2017-09-10T08:27:53.471Z,260
2017-09-10T08:29:03.836Z,260
2017-09-10T08:30:14.230Z,250
2017-09-10T08:31:24.592Z,250
2017-09-10T08:32:37.059Z,245
2017-09-10T08:33:46.780Z,260
2017-09-10T08:34:57.195Z,260
2017-09-10T08:36:07.605Z,255
2017-09-10T08:37:17.324Z,265
2017-09-10T08:38:27.373Z,275
2017-09-10T08:39:37.719Z,265
2017-09-10T08:40:47.765Z,265
2017-09-10T08:41:57.806Z,250
2017-09-10T08:43:07.843Z,250
2017-09-10T08:44:18.192Z,260
2017-09-10T08:45:28.243Z,285
2017-09-10T08:46:38.585Z,270
2017-09-10T08:47:48.939Z,255
2017-09-10T08:48:59.302Z,250
2017-09-10T08:50:09.672Z,245
2017-09-10T08:51:19.731Z,240
2017-09-10T08:52:29.763Z,230
2017-09-10T08:53:40.125Z,225
2017-09-10T08:54:50.466Z,205
2017-09-10T08:56:00.813Z,185
2017-09-10T08:57:11.196Z,180
2017-09-10T08:58:21.278Z,180
2017-09-10T08:59:33.419Z,185
2017-09-10T09:00:43.473Z,180
2017-09-10T09:01:53.826Z,175
2017-09-10T09:03:04.191Z,155
2017-09-10T09:04:14.565Z,140
2017-09-10T09:05:24.928Z,135
2017-09-10T09:06:34.641Z,135
2017-09-10T09:07:44.360Z,145
2017-09-10T09:08:54.707Z,160
2017-09-10T09:10:04.784Z,180
2017-09-10T09:11:14.813Z,190
2017-09-10T09:12:24.528Z,195
2017-09-10T09:13:34.880Z,210
2017-09-10T09:14:45.264Z,220
2017-09-10T09:15:55.604Z,225
2017-09-10T09:17:06.077Z,235
2017-09-10T09:18:16.422Z,240
2017-09-10T09:19:26.779Z,270
2017-09-10T09:20:36.825Z,290
2017-09-10T09:21:46.857Z,290
2017-09-10T09:22:57.265Z,290
2017-09-10T09:24:07.307Z,275
2017-09-10T09:25:17.339Z,255
2017-09-10T09:26:27.689Z,255
2017-09-10T09:27:38.052Z,225
2017-09-10T09:28:48.088Z,205
2017-09-10T09:29:58.447Z,225
2017-09-10T09:31:08.850Z,240
2017-09-10T09:32:19.200Z,225
2017-09-10T09:33:29.592Z,220
2017-09-10T09:34:40.012Z,205
2017-09-10T09:35:50.045Z,185
2017-09-10T09:37:00.115Z,185
2017-09-10T09:38:10.148Z,170
2017-09-10T09:39:20.503Z,160
2017-09-10T09:40:30.859Z,165
2017-09-10T09:41:41.221Z,165
2017-09-10T09:42:51.264Z,180
2017-09-10T09:44:01.308Z,210
2017-09-10T09:45:11.355Z,275
2017-09-10T09:46:23.052Z,285
2017-09-10T09:47:33.396Z,285
2017-09-10T09:48:43.758Z,290
2017-09-10T09:49:54.110Z,290
2017-09-10T09:51:04.145Z,310
2017-09-10T09:52:14.501Z,310
2017-09-10T09:53:24.853Z,295
2017-09-10T09:54:35.224Z,235
2017-09-10T09:55:45.594Z,235
2017-09-10T09:56:55.948Z,235
2017-09-10T09:58:06.022Z,235
2017-09-10T09:59:16.382Z,235
2017-09-10T10:00:26.750Z,210
2017-09-10T10:01:36.994Z,230
2017-09-10T10:02:47.346Z,245
2017-09-10T10:03:57.779Z,270
2017-09-10T10:05:08.138Z,240
2017-09-10T10:06:18.188Z,230
2017-09-10T10:07:28.233Z,290
2017-09-10T10:08:38.620Z,340
2017-09-10T10:09:48.997Z,300
2017-09-10T10:10:59.392Z,305
2017-09-10T10:12:09.563Z,280
2017-09-10T10:13:19.921Z,265
2017-09-10T10:14:30.276Z,270
2017-09-10T10:15:40.642Z,280
2017-09-10T10:16:50.682Z,280
2017-09-10T10:18:01.071Z,205
2017-09-10T10:19:11.446Z,145
2017-09-10T10:20:21.874Z,140
2017-09-10T10:21:32.305Z,140
2017-09-10T10:22:42.362Z,145
2017-09-10T10:23:52.740Z,165
2017-09-10T10:25:03.121Z,175
2017-09-10T10:26:13.487Z,190
2017-09-10T10:27:23.911Z,195
2017-09-10T10:28:34.277Z,200
2017-09-10T10:29:44.771Z,210
2017-09-10T10:30:55.128Z,225
2017-09-10T10:32:04.841Z,235
2017-09-10T10:33:14.874Z,245
2017-09-10T10:34:24.900Z,250
2017-09-10T10:35:35.964Z,250
2017-09-10T10:36:46.317Z,250
2017-09-10T10:37:56.364Z,250
2017-09-10T10:39:06.094Z,250
2017-09-10T10:40:16.134Z,245
2017-09-10T10:41:26.474Z,245
2017-09-10T10:42:36.505Z,250
2017-09-10T10:43:48.867Z,250
2017-09-10T10:44:58.674Z,255
2017-09-10T10:46:08.711Z,245
2017-09-10T10:47:18.745Z,235
2017-09-10T10:48:32.155Z,225
2017-09-10T10:49:42.499Z,225
2017-09-10T10:50:52.874Z,225
2017-09-10T10:52:03.247Z,220
2017-09-10T10:53:13.623Z,215
2017-09-10T10:54:23.993Z,210
2017-09-10T10:55:34.031Z,205
2017-09-10T10:56:44.402Z,205
2017-09-10T10:57:54.516Z,205
2017-09-10T10:59:04.910Z,205
2017-09-10T11:00:15.403Z,210
2017-09-10T11:01:25.446Z,210
2017-09-10T11:02:35.855Z,205
2017-09-10T11:03:45.892Z,200
2017-09-10T11:04:56.263Z,195
2017-09-10T11:06:06.624Z,190
2017-09-10T11:15:52.501Z,200
2017-09-10T11:17:02.869Z,205
2017-09-10T11:18:12.609Z,210
2017-09-10T11:19:23.016Z,215
2017-09-10T11:20:33.077Z,215
2017-09-10T11:21:42.790Z,215
2017-09-10T11:22:52.830Z,215
2017-09-10T11:24:03.186Z,210
2017-09-10T11:25:13.591Z,210
2017-09-10T11:26:23.300Z,210
2017-09-10T11:27:33.341Z,205
2017-09-10T11:28:43.694Z,200
2017-09-10T11:29:54.077Z,185
2017-09-10T11:31:04.468Z,180
2017-09-10T11:32:14.517Z,170
2017-09-10T11:33:24.879Z,165
2017-09-10T11:34:34.914Z,160
2017-09-10T11:35:45.066Z,165
2017-09-10T11:36:54.791Z,165
2017-09-10T11:38:05.164Z,160
2017-09-10T11:39:15.548Z,155
2017-09-10T11:40:25.911Z,155
2017-09-10T11:41:41.148Z,155
2017-09-10T11:42:51.507Z,160
2017-09-10T11:44:01.872Z,165
2017-09-10T11:45:11.940Z,170
2017-09-10T11:46:22.307Z,170
2017-09-10T11:47:32.419Z,170
2017-09-10T11:48:42.218Z,160
2017-09-10T11:49:52.777Z,155
2017-09-10T11:51:03.155Z,155
2017-09-10T11:52:12.899Z,160
2017-09-10T11:53:23.285Z,170
2017-09-10T11:54:33.731Z,175
2017-09-10T11:55:44.089Z,175
2017-09-10T11:56:54.447Z,175
2017-09-10T11:58:04.505Z,180
2017-09-10T11:59:14.563Z,195
2017-09-10T12:00:24.993Z,200
2017-09-10T12:01:35.374Z,205
2017-09-10T12:02:45.806Z,200
2017-09-10T12:03:56.173Z,200
2017-09-10T12:05:06.528Z,205
2017-09-10T12:06:16.622Z,215
2017-09-10T12:07:26.980Z,270
2017-09-10T12:08:37.349Z,255
2017-09-10T12:09:47.731Z,245
2017-09-10T12:10:57.774Z,245
2017-09-10T12:12:08.185Z,255
2017-09-10T12:13:18.537Z,255
2017-09-10T12:14:28.913Z,250
2017-09-10T12:15:39.268Z,250
2017-09-10T12:16:49.633Z,245
2017-09-10T12:18:00.010Z,245
2017-09-10T12:19:10.048Z,250
2017-09-10T12:20:20.422Z,260
2017-09-10T12:21:30.784Z,275
2017-09-10T12:22:41.171Z,290
2017-09-10T12:23:51.215Z,355
2017-09-10T12:25:01.583Z,365
2017-09-10T12:26:11.933Z,355
2017-09-10T12:27:22.322Z,290
2017-09-10T12:28:32.682Z,250
2017-09-10T12:29:43.040Z,250
2017-09-10T12:30:53.085Z,255
2017-09-10T12:32:03.130Z,285
2017-09-10T12:33:13.189Z,265
2017-09-10T12:34:23.559Z,215
2017-09-10T12:35:36.531Z,195
2017-09-10T12:36:46.895Z,185
2017-09-10T12:37:58.693Z,180
2017-09-10T12:39:09.117Z,180
2017-09-10T12:40:19.509Z,180
2017-09-10T12:41:29.879Z,180
2017-09-10T12:42:39.933Z,180
2017-09-10T12:43:50.008Z,180
2017-09-10T12:45:00.402Z,175
2017-09-10T12:46:10.443Z,165
2017-09-10T12:47:20.813Z,155
2017-09-10T12:48:32.472Z,145
2017-09-10T12:49:42.842Z,135
2017-09-10T12:50:53.197Z,120
2017-09-10T12:52:03.582Z,110
2017-09-10T12:53:13.657Z,105
2017-09-10T12:54:23.734Z,95
2017-09-10T12:55:34.110Z,90
2017-09-10T12:56:44.468Z,80
2017-09-10T12:57:54.861Z,75
2017-09-10T12:59:05.313Z,75
2017-09-10T13:00:15.676Z,75
2017-09-10T13:01:26.046Z,75
2017-09-10T13:02:36.097Z,70
2017-09-10T13:03:46.476Z,70
2017-09-10T13:04:56.884Z,65
2017-09-10T13:06:06.919Z,65
2017-09-10T13:07:17.289Z,65
2017-09-10T13:08:27.652Z,65
2017-09-10T13:09:38.036Z,65
2017-09-10T13:10:48.415Z,65
2017-09-10T13:11:58.782Z,70
2017-09-10T13:13:09.172Z,70
2017-09-10T13:14:19.553Z,75
2017-09-10T13:15:29.991Z,75
2017-09-10T13:16:40.418Z,75
2017-09-10T13:17:50.800Z,80
2017-09-10T13:19:01.158Z,80
2017-09-10T13:20:11.506Z,85
2017-09-10T13:21:21.863Z,85
2017-09-10T13:22:32.213Z,80
2017-09-10T13:23:42.245Z,80
2017-09-10T13:24:52.594Z,80
2017-09-10T13:26:02.963Z,80
2017-09-10T13:27:13.308Z,80
2017-09-10T13:28:23.675Z,80
2017-09-10T13:29:33.718Z,80
2017-09-10T13:30:44.100Z,75
2017-09-10T13:31:54.480Z,75
2017-09-10T13:33:04.842Z,75
2017-09-10T13:34:15.211Z,70
2017-09-10T13:35:25.268Z,70
2017-09-10T13:36:35.299Z,70
2017-09-10T13:37:45.324Z,65
2017-09-10T13:38:55.684Z,65
2017-09-10T13:40:07.469Z,65
2017-09-10T13:41:18.059Z,65
2017-09-10T13:42:28.430Z,70
2017-09-10T13:43:38.838Z,75
2017-09-10T13:44:49.315Z,75
2017-09-10T13:45:59.426Z,80
2017-09-10T13:47:09.478Z,85
2017-09-10T13:48:19.854Z,95
2017-09-10T13:49:30.204Z,95
2017-09-10T13:50:40.795Z,95
2017-09-10T13:51:51.854Z,85
2017-09-10T13:53:02.247Z,80
2017-09-10T13:54:12.303Z,75
2017-09-10T13:55:26.049Z,70
2017-09-10T13:56:36.443Z,70
2017-09-10T13:57:46.547Z,65
2017-09-10T13:58:56.559Z,65
2017-09-10T14:00:06.901Z,60
2017-09-10T14:01:16.960Z,55
2017-09-10T14:02:27.303Z,55
2017-09-10T14:03:37.660Z,55
2017-09-10T14:04:48.450Z,60
2017-09-10T14:05:58.796Z,60
2017-09-10T14:07:08.835Z,60
2017-09-10T14:08:19.200Z,60
2017-09-10T14:09:32.418Z,60
2017-09-10T14:10:42.789Z,55
2017-09-10T14:11:53.166Z,50
2017-09-10T14:13:04.506Z,45
2017-09-10T14:14:14.887Z,45
2017-09-10T14:15:25.252Z,45
2017-09-10T14:16:35.649Z,40
2017-09-10T14:17:45.717Z,40
2017-09-10T14:18:57.977Z,40
2017-09-10T14:20:07.680Z,40
2017-09-10T14:21:19.293Z,40
2017-09-10T14:22:29.321Z,40
2017-09-10T14:23:39.718Z,40
2017-09-10T14:24:50.065Z,45
2017-09-10T14:26:00.416Z,45
2017-09-10T14:27:12.809Z,50
2017-09-10T14:28:23.182Z,55
2017-09-10T14:29:33.538Z,60
2017-09-10T14:30:43.903Z,65
2017-09-10T14:31:53.948Z,70
2017-09-10T14:33:03.978Z,70
2017-09-10T14:34:14.332Z,70
2017-09-10T14:35:24.725Z,70
2017-09-10T14:36:34.760Z,70
2017-09-10T14:37:47.644Z,70
2017-09-10T14:38:58.002Z,65
2017-09-10T14:40:08.350Z,65
2017-09-10T14:41:18.708Z,65
2017-09-10T14:42:30.335Z,65
2017-09-10T14:46:03.934Z,50
2017-09-10T14:47:13.991Z,45
2017-09-10T14:48:24.364Z,45
2017-09-10T14:49:34.732Z,45
2017-09-10T14:50:45.106Z,40
2017-09-10T14:51:55.469Z,40
2017-09-10T14:53:05.865Z,40
2017-09-10T14:54:18.174Z,40
2017-09-10T14:55:28.564Z,45
2017-09-10T14:56:38.953Z,45
2017-09-10T14:57:49.305Z,45
2017-09-10T14:58:59.714Z,50
2017-09-10T15:00:10.125Z,45
2017-09-10T15:01:20.493Z,45
2017-09-10T15:02:30.902Z,40
2017-09-10T15:03:41.277Z,40
2017-09-10T15:04:51.660Z,35
2017-09-10T15:06:03.135Z,35
2017-09-10T15:07:13.507Z,30
2017-09-10T15:08:23.563Z,25
2017-09-10T15:09:33.956Z,25
2017-09-10T15:10:44.317Z,20
2017-09-10T15:11:54.680Z,20
2017-09-10T15:13:04.722Z,20
2017-09-10T15:14:15.065Z,20
2017-09-10T15:15:25.422Z,20
2017-09-10T15:16:35.513Z,20
2017-09-10T15:17:47.220Z,20
2017-09-10T15:18:57.599Z,20
2017-09-10T15:20:07.666Z,15
2017-09-10T15:21:18.019Z,20
2017-09-10T15:22:28.107Z,20
2017-09-10T15:23:38.144Z,20
2017-09-10T15:24:48.509Z,20
2017-09-10T15:25:58.881Z,25
2017-09-10T15:27:08.913Z,25
2017-09-10T15:28:19.319Z,25
2017-09-10T15:29:29.673Z,30
2017-09-10T15:30:39.717Z,30
2017-09-10T15:31:52.215Z,35
2017-09-10T15:33:02.580Z,35
2017-09-10T15:34:12.863Z,35
2017-09-10T15:35:22.937Z,35
2017-09-10T15:36:35.790Z,35
2017-09-10T15:37:45.516Z,35
2017-09-10T15:38:55.856Z,35
2017-09-10T15:40:06.268Z,40
2017-09-10T15:41:16.299Z,40
2017-09-10T15:42:26.680Z,40
2017-09-10T15:43:37.026Z,45
2017-09-10T15:44:47.414Z,45
2017-09-10T15:45:57.515Z,45
2017-09-10T15:47:10.385Z,45
2017-09-10T15:48:23.293Z,45
2017-09-10T15:49:33.702Z,45
2017-09-10T15:50:44.075Z,45
2017-09-10T15:51:55.266Z,45
2017-09-10T15:53:05.353Z,45
2017-09-10T15:54:15.950Z,40
2017-09-10T15:55:26.304Z,40
2017-09-10T15:56:36.673Z,40
2017-09-10T15:57:47.115Z,35
2017-09-10T15:58:57.689Z,35
2017-09-10T16:00:08.077Z,35
2017-09-10T16:01:18.113Z,35
2017-09-10T16:02:28.489Z,35
2017-09-10T16:03:38.865Z,30
2017-09-10T16:04:48.915Z,30
2017-09-10T16:06:00.285Z,25
2017-09-10T16:07:10.657Z,25
2017-09-10T16:08:21.012Z,25
2017-09-10T16:09:31.468Z,25
2017-09-10T16:10:41.508Z,25
2017-09-10T16:11:51.550Z,25
2017-09-10T16:13:01.953Z,30
2017-09-10T16:14:12.346Z,30
2017-09-10T16:15:22.725Z,30
2017-09-10T16:16:33.103Z,30
2017-09-10T16:17:43.460Z,30
2017-09-10T16:18:53.815Z,30
2017-09-10T16:20:04.242Z,30
2017-09-10T16:21:14.629Z,30
2017-09-10T16:22:25.008Z,25
2017-09-10T16:23:34.738Z,25
2017-09-10T16:24:46.757Z,25
2017-09-10T16:25:58.818Z,25
2017-09-10T16:27:09.234Z,20
2017-09-10T16:28:19.639Z,20
2017-09-10T16:29:30.003Z,20
2017-09-10T16:30:40.049Z,20
2017-09-10T16:31:51.473Z,20
2017-09-10T16:33:02.749Z,15
2017-09-10T16:34:12.809Z,15
2017-09-10T16:35:22.861Z,15
2017-09-10T16:36:33.231Z,15
2017-09-10T16:37:43.614Z,10
2017-09-10T16:38:54.053Z,10
2017-09-10T16:40:04.470Z,10
2017-09-10T16:41:14.876Z,10
2017-09-10T16:42:25.275Z,10
2017-09-10T16:43:35.666Z,10
2017-09-10T16:44:48.116Z,10
2017-09-10T16:45:58.500Z,10
2017-09-10T16:47:08.928Z,5
2017-09-10T16:48:19.400Z,5
2017-09-10T16:49:29.950Z,5
2017-09-10T16:50:40.467Z,5
2017-09-10T16:51:50.859Z,5
2017-09-10T16:53:01.289Z,5
2017-09-10T16:54:11.701Z,5
2017-09-10T16:55:21.765Z,5
2017-09-10T16:56:32.202Z,5
2017-09-10T16:57:42.273Z,5
2017-09-10T16:58:52.317Z,5
2017-09-10T17:00:02.668Z,0
2017-09-10T17:01:13.065Z,0
2017-09-10T17:02:23.581Z,0
2017-09-10T17:03:34.233Z,0
2017-09-10T17:04:45.409Z,0
2017-09-10T17:05:57.151Z,0
2017-09-10T17:07:07.540Z,0
2017-09-10T17:08:18.698Z,0
2017-09-10T17:09:29.168Z,0
2017-09-10T17:10:39.626Z,0
2017-09-10T17:11:50.079Z,0
2017-09-10T17:13:00.504Z,0
2017-09-10T17:14:10.974Z,0
2017-09-10T17:15:22.899Z,0
2017-09-10T17:16:32.994Z,0
2017-09-10T17:17:43.433Z,0
2017-09-10T17:18:58.274Z,0
2017-09-10T17:20:08.712Z,0
2017-09-10T17:21:18.774Z,0
2017-09-10T17:22:29.198Z,0